Coastal Inspiration — CFN4970 — position and weather

sailwx.info

Track history (hours):
 
Tides and Currents Weather Stations Pressure Air Temp Water Temp Dewpoint Dewpoint Depression Visibility Wind Speed Wind Dir Waves Ship Positions

Coastal Inspiration

Last reported at 2016-Jun-25 08:06 UTC. Time now 2016-Jun-25 08:50 UTC.
Position N 49°10' W 123°53'.

Length 160 m; draft 6 m.

Type: Ship. MMSI: 316011408.

Date/timePositionNaut miles runAvg speedWind from/ knotsBaromVisibWave heightAir tempDewpointWater temp
2016-Jun-25 08:06N 49°10' W 123°53'5 9.4
2016-Jun-25 07:33N 49°13' W 123°48'2120.6
2016-Jun-25 06:34N 49°03' W 123°20'8 8.5
2016-Jun-25 05:33N 49°00' W 123°08'1717.3
2016-Jun-25 04:33N 49°07' W 123°32'1410.3
2016-Jun-25 03:11N 49°10' W 123°53'710.8
2016-Jun-25 02:33N 49°13' W 123°44'2221.6
2016-Jun-25 01:33N 49°02' W 123°16'5 5.3
2016-Jun-25 00:33N 49°00' W 123°08'1615.8
2016-Jun-24 23:33N 49°06' W 123°30'1615.7
2016-Jun-24 22:33N 49°11' W 123°54'2 2.1
2016-Jun-24 21:33N 49°13' W 123°52'2019.6
2016-Jun-24 20:33N 49°05' W 123°24'1212.0
2016-Jun-24 19:33N 49°00' W 123°08'1111.4
2016-Jun-24 18:33N 49°03' W 123°25'1919.1
2016-Jun-24 17:33N 49°13' W 123°50'2 2.0
2016-Jun-24 16:33N 49°12' W 123°53'1818.1
2016-Jun-24 15:33N 49°06' W 123°27'1413.6
2016-Jun-24 14:33N 49°00' W 123°08'1111.6
2016-Jun-24 13:33N 49°03' W 123°25'1818.3
2016-Jun-24 12:33N 49°13' W 123°49'4 0.9
2016-Jun-24 07:33N 49°10' W 123°53'21 7.2
2016-Jun-24 04:33N 49°03' W 123°22'2020.5
2016-Jun-24 03:33N 49°13' W 123°50'1 0.8
2016-Jun-24 02:33N 49°13' W 123°51'2020.4
2016-Jun-24 01:33N 49°05' W 123°22'1010.3
2016-Jun-24 00:34N 49°00' W 123°08'1514.5
2016-Jun-23 23:34N 49°05' W 123°29'1717.1
2016-Jun-23 22:34N 49°11' W 123°53'1 1.1
2016-Jun-23 21:34N 49°12' W 123°53'1918.6
2016-Jun-23 20:33N 49°06' W 123°26'1313.0
2016-Jun-23 19:33N 49°00' W 123°08'1110.9
2016-Jun-23 18:33N 49°03' W 123°24'2019.7
2016-Jun-23 17:33N 49°13' W 123°50'2 2.0
2016-Jun-23 16:34N 49°12' W 123°53'1918.8
2016-Jun-23 15:33N 49°06' W 123°26'1313.0
2016-Jun-23 14:34N 49°00' W 123°08'1111.1
2016-Jun-23 13:33N 49°03' W 123°24'1818.4
2016-Jun-23 12:33N 49°13' W 123°48'5 2.2
2016-Jun-23 10:27N 49°10' W 123°53'1 0.5
2016-Jun-23 07:33N 49°11' W 123°53'3115.8
2016-Jun-23 05:33N 49°00' W 123°08'1515.1
2016-Jun-23 04:33N 49°06' W 123°29'1612.9
2016-Jun-23 03:18N 49°10' W 123°53'4 6.0
2016-Jun-23 02:33N 49°13' W 123°49'2020.4
2016-Jun-23 01:33N 49°04' W 123°21'9 9.2
2016-Jun-23 00:33N 49°00' W 123°08'1615.5
2016-Jun-22 23:33N 49°06' W 123°30'1615.9
2016-Jun-22 22:33N 49°10' W 123°53'2 2.1
2016-Jun-22 21:34N 49°12' W 123°52'1918.6
2016-Jun-22 20:34N 49°06' W 123°26'1312.8
2016-Jun-22 19:33N 49°00' W 123°08'1211.8
2016-Jun-22 18:33N 49°04' W 123°25'1918.6
2016-Jun-22 17:33N 49°13' W 123°50'1 1.3
2016-Jun-22 16:33N 49°13' W 123°52'1918.6
2016-Jun-22 15:33N 49°06' W 123°25'1212.6
2016-Jun-22 14:33N 49°00' W 123°08'1212.2
2016-Jun-22 13:34N 49°04' W 123°26'1817.8
2016-Jun-22 12:34N 49°13' W 123°49'4 0.8
2016-Jun-22 07:34N 49°10' W 123°53'1716.6
2016-Jun-22 06:34N 49°07' W 123°28'1514.9
2016-Jun-22 05:33N 49°00' W 123°08'1212.3
2016-Jun-22 04:33N 49°04' W 123°26'1919.3
2016-Jun-22 03:33N 49°11' W 123°53'4 4.3
2016-Jun-22 02:33N 49°13' W 123°47'2221.8
2016-Jun-22 01:33N 49°03' W 123°18'7 7.1
2016-Jun-22 00:33N 49°00' W 123°08'1615.8
2016-Jun-21 23:33N 49°06' W 123°30'1615.8
2016-Jun-21 22:33N 49°11' W 123°53'2 2.1
2016-Jun-21 21:33N 49°13' W 123°51'1919.4
2016-Jun-21 20:33N 49°05' W 123°24'1211.6
2016-Jun-21 19:33N 49°00' W 123°08'1211.5
2016-Jun-21 18:33N 49°04' W 123°25'1919.1
2016-Jun-21 17:34N 49°13' W 123°50'1 1.3
2016-Jun-21 16:34N 49°12' W 123°52'1918.8
2016-Jun-21 15:33N 49°06' W 123°25'1312.6
2016-Jun-21 14:33N 49°00' W 123°08'1212.3
2016-Jun-21 13:33N 49°04' W 123°26'1817.9
2016-Jun-21 12:34N 49°13' W 123°50'1 0.3
2016-Jun-21 07:34N 49°13' W 123°51'3115.5
2016-Jun-21 05:34N 49°00' W 123°08'1514.9
2016-Jun-21 04:33N 49°05' W 123°30'1611.0
2016-Jun-21 03:04N 49°10' W 123°53'3 5.0
2016-Jun-21 02:34N 49°12' W 123°53'2019.7
2016-Jun-21 01:34N 49°06' W 123°24'1211.9
2016-Jun-21 00:33N 49°00' W 123°08'1313.0
2016-Jun-20 23:33N 49°05' W 123°27'1918.7
2016-Jun-20 22:33N 49°12' W 123°53'2 1.5
2016-Jun-20 21:33N 49°13' W 123°51'1919.3
2016-Jun-20 20:33N 49°05' W 123°24'1211.3
2016-Jun-20 19:31N 49°00' W 123°08'1212.4
2016-Jun-20 18:33N 49°04' W 123°25'2019.6
2016-Jun-20 17:34N 49°13' W 123°52'1 1.2
2016-Jun-20 16:33N 49°13' W 123°50'2019.7
2016-Jun-20 15:33N 49°05' W 123°23'1110.5
2016-Jun-20 14:32N 49°00' W 123°08'1212.4
2016-Jun-20 13:33N 49°04' W 123°26'1817.9
2016-Jun-20 12:33N 49°13' W 123°49'4 2.0
2016-Jun-20 10:29N 49°10' W 123°53'0 0.0
2016-Jun-20 09:11N 49°10' W 123°53'2 1.2
2016-Jun-20 07:33N 49°12' W 123°53'1818.2
2016-Jun-20 06:33N 49°06' W 123°27'1413.7
2016-Jun-20 05:34N 49°00' W 123°08'1111.1
2016-Jun-20 04:34N 49°04' W 123°24'2020.1
2016-Jun-20 03:34N 49°13' W 123°52'2 1.5
2016-Jun-20 02:34N 49°13' W 123°50'1919.3
2016-Jun-20 01:34N 49°05' W 123°23'1110.7
2016-Jun-20 00:33N 49°00' W 123°08'1514.8
2016-Jun-19 23:33N 49°06' W 123°29'1716.8
2016-Jun-19 22:33N 49°11' W 123°53'1 0.8
2016-Jun-19 21:34N 49°12' W 123°53'1919.2
2016-Jun-19 20:33N 49°06' W 123°25'1312.6
2016-Jun-19 19:33N 49°00' W 123°08'1312.9
2016-Jun-19 18:33N 49°05' W 123°27'1818.0
2016-Jun-19 17:34N 49°13' W 123°51'4 2.9
2016-Jun-19 16:13N 49°10' W 123°53'0 0.0
2016-Jun-19 12:33N 49°10' W 123°53'0 0.0
2016-Jun-19 11:33N 49°10' W 123°53'0 0.0
2016-Jun-19 08:25N 49°10' W 123°53'0 0.0
2016-Jun-19 07:08N 49°10' W 123°53'0 0.0
2016-Jun-19 06:29N 49°10' W 123°53'0 0.0
2016-Jun-19 05:33N 49°10' W 123°53'2 0.8
2016-Jun-19 02:34N 49°12' W 123°53'1918.9
2016-Jun-19 01:34N 49°06' W 123°26'1313.0
2016-Jun-19 00:33N 49°00' W 123°08'1313.3
2016-Jun-18 23:33N 49°05' W 123°27'1818.4
2016-Jun-18 22:33N 49°12' W 123°53'2 2.4
2016-Jun-18 21:33N 49°12' W 123°57'1 0.8
2016-Jun-18 20:33N 49°12' W 123°57'0 0.0
2016-Jun-18 19:33N 49°12' W 123°57'0 0.0
2016-Jun-18 18:32N 49°12' W 123°57'0 0.0
2016-Jun-18 17:33N 49°12' W 123°57'0 0.0
2016-Jun-18 16:29N 49°12' W 123°57'0 0.0
2016-Jun-18 15:33N 49°12' W 123°57'0 0.0
2016-Jun-18 14:29N 49°12' W 123°57'0 0.0
2016-Jun-18 13:33N 49°12' W 123°57'0 0.0
2016-Jun-18 12:33N 49°12' W 123°57'0 0.0
2016-Jun-18 11:33N 49°12' W 123°57'0 0.0
2016-Jun-18 10:33N 49°12' W 123°57'0 0.0
2016-Jun-18 09:32N 49°12' W 123°57'0 0.0
2016-Jun-18 08:33N 49°12' W 123°57'0 0.0
2016-Jun-18 07:32N 49°12' W 123°57'0 0.0
2016-Jun-18 06:33N 49°12' W 123°57'0 0.0
2016-Jun-18 05:33N 49°12' W 123°57'0 0.0
2016-Jun-18 04:33N 49°12' W 123°57'0 0.0
2016-Jun-18 03:33N 49°12' W 123°57'0 0.0
2016-Jun-18 02:29N 49°12' W 123°57'0 0.0
2016-Jun-18 01:33N 49°12' W 123°57'0 0.0
2016-Jun-18 00:33N 49°12' W 123°57'0 0.0
2016-Jun-17 23:33N 49°12' W 123°57'0 0.0
2016-Jun-17 22:28N 49°12' W 123°57'0 0.0
2016-Jun-17 21:29N 49°12' W 123°57'0 0.1
2016-Jun-17 20:33N 49°12' W 123°57'0 0.1
2016-Jun-17 19:25N 49°12' W 123°57'0 0.1
2016-Jun-17 18:33N 49°12' W 123°57'0 0.0
2016-Jun-17 17:33N 49°12' W 123°57'0 0.0
2016-Jun-17 16:33N 49°12' W 123°57'0 0.0
2016-Jun-17 15:33N 49°12' W 123°57'0 0.0
2016-Jun-17 14:33N 49°12' W 123°57'0 0.0
2016-Jun-17 13:33N 49°12' W 123°57'0 0.0
2016-Jun-17 12:33N 49°12' W 123°57'0 0.0
2016-Jun-17 11:33N 49°12' W 123°57'0 0.0
2016-Jun-17 10:33N 49°12' W 123°57'0 0.0
2016-Jun-17 09:31N 49°12' W 123°57'0 0.0
2016-Jun-17 08:33N 49°12' W 123°57'0 0.0
2016-Jun-17 07:31N 49°12' W 123°57'0 0.0
2016-Jun-17 06:33N 49°12' W 123°57'0 0.0
2016-Jun-17 05:33N 49°12' W 123°57'0 0.0
2016-Jun-17 04:33N 49°12' W 123°57'0 0.0
2016-Jun-17 03:33N 49°12' W 123°57'0 0.0
2016-Jun-17 02:33N 49°12' W 123°57'0 0.0
2016-Jun-17 01:33N 49°12' W 123°57'0 0.0
2016-Jun-17 00:33N 49°12' W 123°57'0 0.0
2016-Jun-16 23:33N 49°12' W 123°57'0 0.0
2016-Jun-16 22:30N 49°12' W 123°57'0 0.0
2016-Jun-16 21:33N 49°12' W 123°57'0 0.1
2016-Jun-16 20:28N 49°12' W 123°57'0 0.0
2016-Jun-16 19:33N 49°12' W 123°57'0 0.0
2016-Jun-16 15:33N 49°12' W 123°57'0 0.0
2016-Jun-16 14:33N 49°12' W 123°57'0 0.0
2016-Jun-16 13:33N 49°12' W 123°57'0 0.0
2016-Jun-16 12:33N 49°12' W 123°57'0 0.0
2016-Jun-16 11:33N 49°12' W 123°57'0 0.0
2016-Jun-16 10:33N 49°12' W 123°57'0 0.0
2016-Jun-16 09:33N 49°12' W 123°57'0 0.0
2016-Jun-16 08:33N 49°12' W 123°57'0 0.0
2016-Jun-16 07:33N 49°12' W 123°57'0 0.0
2016-Jun-16 06:33N 49°12' W 123°57'0 0.0
2016-Jun-16 05:33N 49°12' W 123°57'0 0.0
2016-Jun-16 04:33N 49°12' W 123°57'0 0.0
2016-Jun-16 03:33N 49°12' W 123°57'0 0.0
2016-Jun-16 02:33N 49°12' W 123°57'0 0.0
2016-Jun-16 01:33N 49°12' W 123°57'0 0.0
2016-Jun-16 00:33N 49°12' W 123°57'7 7.3
2016-Jun-15 23:34N 49°18' W 123°53'6 6.5
2016-Jun-15 22:34N 49°24' W 123°57'1 1.4
2016-Jun-15 21:34N 49°25' W 123°59'9 8.7
2016-Jun-15 20:34N 49°18' W 123°52'0 0.5
2016-Jun-15 19:33N 49°18' W 123°52'6 5.7
2016-Jun-15 18:33N 49°13' W 123°55'2 1.7
2016-Jun-15 17:33N 49°12' W 123°57'0 0.0
2016-Jun-15 16:33N 49°12' W 123°57'0 0.0
2016-Jun-15 15:33N 49°12' W 123°57'0 0.0
2016-Jun-15 14:34N 49°12' W 123°57'0 0.0
2016-Jun-15 13:34N 49°12' W 123°57'0 0.0
2016-Jun-15 12:34N 49°12' W 123°57'0 0.0
2016-Jun-15 11:34N 49°12' W 123°57'0 0.0
2016-Jun-15 10:34N 49°12' W 123°57'0 0.0
2016-Jun-15 09:34N 49°12' W 123°57'0 0.0
2016-Jun-15 08:34N 49°12' W 123°57'  
Track history (hours):
 
Tides and Currents Weather Stations Pressure Air Temp Water Temp Dewpoint Dewpoint Depression Visibility Wind Speed Wind Dir Waves Ship Positions

Coastal Inspiration

Last reported at 2016-Jun-25 08:06 UTC. Time now 2016-Jun-25 08:50 UTC.
Position N 49°10' W 123°53'.

Length 160 m; draft 6 m.

Type: Ship. MMSI: 316011408.

Date/timePositionNaut miles runAvg speedWind from/ knotsBaromVisibWave heightAir tempDewpointWater temp
2016-Jun-25 08:06N 49°10' W 123°53'5 9.4
2016-Jun-25 07:33N 49°13' W 123°48'2120.6
2016-Jun-25 06:34N 49°03' W 123°20'8 8.5
2016-Jun-25 05:33N 49°00' W 123°08'1717.3
2016-Jun-25 04:33N 49°07' W 123°32'1410.3
2016-Jun-25 03:11N 49°10' W 123°53'710.8
2016-Jun-25 02:33N 49°13' W 123°44'2221.6
2016-Jun-25 01:33N 49°02' W 123°16'5 5.3
2016-Jun-25 00:33N 49°00' W 123°08'1615.8
2016-Jun-24 23:33N 49°06' W 123°30'1615.7
2016-Jun-24 22:33N 49°11' W 123°54'2 2.1
2016-Jun-24 21:33N 49°13' W 123°52'2019.6
2016-Jun-24 20:33N 49°05' W 123°24'1212.0
2016-Jun-24 19:33N 49°00' W 123°08'1111.4
2016-Jun-24 18:33N 49°03' W 123°25'1919.1
2016-Jun-24 17:33N 49°13' W 123°50'2 2.0
2016-Jun-24 16:33N 49°12' W 123°53'1818.1
2016-Jun-24 15:33N 49°06' W 123°27'1413.6
2016-Jun-24 14:33N 49°00' W 123°08'1111.6
2016-Jun-24 13:33N 49°03' W 123°25'1818.3
2016-Jun-24 12:33N 49°13' W 123°49'4 0.9
2016-Jun-24 07:33N 49°10' W 123°53'21 7.2
2016-Jun-24 04:33N 49°03' W 123°22'2020.5
2016-Jun-24 03:33N 49°13' W 123°50'1 0.8
2016-Jun-24 02:33N 49°13' W 123°51'2020.4
2016-Jun-24 01:33N 49°05' W 123°22'1010.3
2016-Jun-24 00:34N 49°00' W 123°08'1514.5
2016-Jun-23 23:34N 49°05' W 123°29'1717.1
2016-Jun-23 22:34N 49°11' W 123°53'1 1.1
2016-Jun-23 21:34N 49°12' W 123°53'1918.6
2016-Jun-23 20:33N 49°06' W 123°26'1313.0
2016-Jun-23 19:33N 49°00' W 123°08'1110.9
2016-Jun-23 18:33N 49°03' W 123°24'2019.7
2016-Jun-23 17:33N 49°13' W 123°50'2 2.0
2016-Jun-23 16:34N 49°12' W 123°53'1918.8
2016-Jun-23 15:33N 49°06' W 123°26'1313.0
2016-Jun-23 14:34N 49°00' W 123°08'1111.1
2016-Jun-23 13:33N 49°03' W 123°24'1818.4
2016-Jun-23 12:33N 49°13' W 123°48'5 2.2
2016-Jun-23 10:27N 49°10' W 123°53'1 0.5
2016-Jun-23 07:33N 49°11' W 123°53'3115.8
2016-Jun-23 05:33N 49°00' W 123°08'1515.1
2016-Jun-23 04:33N 49°06' W 123°29'1612.9
2016-Jun-23 03:18N 49°10' W 123°53'4 6.0
2016-Jun-23 02:33N 49°13' W 123°49'2020.4
2016-Jun-23 01:33N 49°04' W 123°21'9 9.2
2016-Jun-23 00:33N 49°00' W 123°08'1615.5
2016-Jun-22 23:33N 49°06' W 123°30'1615.9
2016-Jun-22 22:33N 49°10' W 123°53'2 2.1
2016-Jun-22 21:34N 49°12' W 123°52'1918.6
2016-Jun-22 20:34N 49°06' W 123°26'1312.8
2016-Jun-22 19:33N 49°00' W 123°08'1211.8
2016-Jun-22 18:33N 49°04' W 123°25'1918.6
2016-Jun-22 17:33N 49°13' W 123°50'1 1.3
2016-Jun-22 16:33N 49°13' W 123°52'1918.6
2016-Jun-22 15:33N 49°06' W 123°25'1212.6
2016-Jun-22 14:33N 49°00' W 123°08'1212.2
2016-Jun-22 13:34N 49°04' W 123°26'1817.8
2016-Jun-22 12:34N 49°13' W 123°49'4 0.8
2016-Jun-22 07:34N 49°10' W 123°53'1716.6
2016-Jun-22 06:34N 49°07' W 123°28'1514.9
2016-Jun-22 05:33N 49°00' W 123°08'1212.3
2016-Jun-22 04:33N 49°04' W 123°26'1919.3
2016-Jun-22 03:33N 49°11' W 123°53'4 4.3
2016-Jun-22 02:33N 49°13' W 123°47'2221.8
2016-Jun-22 01:33N 49°03' W 123°18'7 7.1
2016-Jun-22 00:33N 49°00' W 123°08'1615.8
2016-Jun-21 23:33N 49°06' W 123°30'1615.8
2016-Jun-21 22:33N 49°11' W 123°53'2 2.1
2016-Jun-21 21:33N 49°13' W 123°51'1919.4
2016-Jun-21 20:33N 49°05' W 123°24'1211.6
2016-Jun-21 19:33N 49°00' W 123°08'1211.5
2016-Jun-21 18:33N 49°04' W 123°25'1919.1
2016-Jun-21 17:34N 49°13' W 123°50'1 1.3
2016-Jun-21 16:34N 49°12' W 123°52'1918.8
2016-Jun-21 15:33N 49°06' W 123°25'1312.6
2016-Jun-21 14:33N 49°00' W 123°08'1212.3
2016-Jun-21 13:33N 49°04' W 123°26'1817.9
2016-Jun-21 12:34N 49°13' W 123°50'1 0.3
2016-Jun-21 07:34N 49°13' W 123°51'3115.5
2016-Jun-21 05:34N 49°00' W 123°08'1514.9
2016-Jun-21 04:33N 49°05' W 123°30'1611.0
2016-Jun-21 03:04N 49°10' W 123°53'3 5.0
2016-Jun-21 02:34N 49°12' W 123°53'2019.7
2016-Jun-21 01:34N 49°06' W 123°24'1211.9
2016-Jun-21 00:33N 49°00' W 123°08'1313.0
2016-Jun-20 23:33N 49°05' W 123°27'1918.7
2016-Jun-20 22:33N 49°12' W 123°53'2 1.5
2016-Jun-20 21:33N 49°13' W 123°51'1919.3
2016-Jun-20 20:33N 49°05' W 123°24'1211.3
2016-Jun-20 19:31N 49°00' W 123°08'1212.4
2016-Jun-20 18:33N 49°04' W 123°25'2019.6
2016-Jun-20 17:34N 49°13' W 123°52'1 1.2
2016-Jun-20 16:33N 49°13' W 123°50'2019.7
2016-Jun-20 15:33N 49°05' W 123°23'1110.5
2016-Jun-20 14:32N 49°00' W 123°08'1212.4
2016-Jun-20 13:33N 49°04' W 123°26'1817.9
2016-Jun-20 12:33N 49°13' W 123°49'4 2.0
2016-Jun-20 10:29N 49°10' W 123°53'0 0.0
2016-Jun-20 09:11N 49°10' W 123°53'2 1.2
2016-Jun-20 07:33N 49°12' W 123°53'1818.2
2016-Jun-20 06:33N 49°06' W 123°27'1413.7
2016-Jun-20 05:34N 49°00' W 123°08'1111.1
2016-Jun-20 04:34N 49°04' W 123°24'2020.1
2016-Jun-20 03:34N 49°13' W 123°52'2 1.5
2016-Jun-20 02:34N 49°13' W 123°50'1919.3
2016-Jun-20 01:34N 49°05' W 123°23'1110.7
2016-Jun-20 00:33N 49°00' W 123°08'1514.8
2016-Jun-19 23:33N 49°06' W 123°29'1716.8
2016-Jun-19 22:33N 49°11' W 123°53'1 0.8
2016-Jun-19 21:34N 49°12' W 123°53'1919.2
2016-Jun-19 20:33N 49°06' W 123°25'1312.6
2016-Jun-19 19:33N 49°00' W 123°08'1312.9
2016-Jun-19 18:33N 49°05' W 123°27'1818.0
2016-Jun-19 17:34N 49°13' W 123°51'4 2.9
2016-Jun-19 16:13N 49°10' W 123°53'0 0.0
2016-Jun-19 12:33N 49°10' W 123°53'0 0.0
2016-Jun-19 11:33N 49°10' W 123°53'0 0.0
2016-Jun-19 08:25N 49°10' W 123°53'0 0.0
2016-Jun-19 07:08N 49°10' W 123°53'0 0.0
2016-Jun-19 06:29N 49°10' W 123°53'0 0.0
2016-Jun-19 05:33N 49°10' W 123°53'2 0.8
2016-Jun-19 02:34N 49°12' W 123°53'1918.9
2016-Jun-19 01:34N 49°06' W 123°26'1313.0
2016-Jun-19 00:33N 49°00' W 123°08'1313.3
2016-Jun-18 23:33N 49°05' W 123°27'1818.4
2016-Jun-18 22:33N 49°12' W 123°53'2 2.4
2016-Jun-18 21:33N 49°12' W 123°57'1 0.8
2016-Jun-18 20:33N 49°12' W 123°57'0 0.0
2016-Jun-18 19:33N 49°12' W 123°57'0 0.0
2016-Jun-18 18:32N 49°12' W 123°57'0 0.0
2016-Jun-18 17:33N 49°12' W 123°57'0 0.0
2016-Jun-18 16:29N 49°12' W 123°57'0 0.0
2016-Jun-18 15:33N 49°12' W 123°57'0 0.0
2016-Jun-18 14:29N 49°12' W 123°57'0 0.0
2016-Jun-18 13:33N 49°12' W 123°57'0 0.0
2016-Jun-18 12:33N 49°12' W 123°57'0 0.0
2016-Jun-18 11:33N 49°12' W 123°57'0 0.0
2016-Jun-18 10:33N 49°12' W 123°57'0 0.0
2016-Jun-18 09:32N 49°12' W 123°57'0 0.0
2016-Jun-18 08:33N 49°12' W 123°57'0 0.0
2016-Jun-18 07:32N 49°12' W 123°57'0 0.0
2016-Jun-18 06:33N 49°12' W 123°57'0 0.0
2016-Jun-18 05:33N 49°12' W 123°57'0 0.0
2016-Jun-18 04:33N 49°12' W 123°57'0 0.0
2016-Jun-18 03:33N 49°12' W 123°57'0 0.0
2016-Jun-18 02:29N 49°12' W 123°57'0 0.0
2016-Jun-18 01:33N 49°12' W 123°57'0 0.0
2016-Jun-18 00:33N 49°12' W 123°57'0 0.0
2016-Jun-17 23:33N 49°12' W 123°57'0 0.0
2016-Jun-17 22:28N 49°12' W 123°57'0 0.0
2016-Jun-17 21:29N 49°12' W 123°57'0 0.1
2016-Jun-17 20:33N 49°12' W 123°57'0 0.1
2016-Jun-17 19:25N 49°12' W 123°57'0 0.1
2016-Jun-17 18:33N 49°12' W 123°57'0 0.0
2016-Jun-17 17:33N 49°12' W 123°57'0 0.0
2016-Jun-17 16:33N 49°12' W 123°57'0 0.0
2016-Jun-17 15:33N 49°12' W 123°57'0 0.0
2016-Jun-17 14:33N 49°12' W 123°57'0 0.0
2016-Jun-17 13:33N 49°12' W 123°57'0 0.0
2016-Jun-17 12:33N 49°12' W 123°57'0 0.0
2016-Jun-17 11:33N 49°12' W 123°57'0 0.0
2016-Jun-17 10:33N 49°12' W 123°57'0 0.0
2016-Jun-17 09:31N 49°12' W 123°57'0 0.0
2016-Jun-17 08:33N 49°12' W 123°57'0 0.0
2016-Jun-17 07:31N 49°12' W 123°57'0 0.0
2016-Jun-17 06:33N 49°12' W 123°57'0 0.0
2016-Jun-17 05:33N 49°12' W 123°57'0 0.0
2016-Jun-17 04:33N 49°12' W 123°57'0 0.0
2016-Jun-17 03:33N 49°12' W 123°57'0 0.0
2016-Jun-17 02:33N 49°12' W 123°57'0 0.0
2016-Jun-17 01:33N 49°12' W 123°57'0 0.0
2016-Jun-17 00:33N 49°12' W 123°57'0 0.0
2016-Jun-16 23:33N 49°12' W 123°57'0 0.0
2016-Jun-16 22:30N 49°12' W 123°57'0 0.0
2016-Jun-16 21:33N 49°12' W 123°57'0 0.1
2016-Jun-16 20:28N 49°12' W 123°57'0 0.0
2016-Jun-16 19:33N 49°12' W 123°57'0 0.0
2016-Jun-16 15:33N 49°12' W 123°57'0 0.0
2016-Jun-16 14:33N 49°12' W 123°57'0 0.0
2016-Jun-16 13:33N 49°12' W 123°57'0 0.0
2016-Jun-16 12:33N 49°12' W 123°57'0 0.0
2016-Jun-16 11:33N 49°12' W 123°57'0 0.0
2016-Jun-16 10:33N 49°12' W 123°57'0 0.0
2016-Jun-16 09:33N 49°12' W 123°57'0 0.0
2016-Jun-16 08:33N 49°12' W 123°57'0 0.0
2016-Jun-16 07:33N 49°12' W 123°57'0 0.0
2016-Jun-16 06:33N 49°12' W 123°57'0 0.0
2016-Jun-16 05:33N 49°12' W 123°57'0 0.0
2016-Jun-16 04:33N 49°12' W 123°57'0 0.0
2016-Jun-16 03:33N 49°12' W 123°57'0 0.0
2016-Jun-16 02:33N 49°12' W 123°57'0 0.0
2016-Jun-16 01:33N 49°12' W 123°57'0 0.0
2016-Jun-16 00:33N 49°12' W 123°57'7 7.3
2016-Jun-15 23:34N 49°18' W 123°53'6 6.5
2016-Jun-15 22:34N 49°24' W 123°57'1 1.4
2016-Jun-15 21:34N 49°25' W 123°59'9 8.7
2016-Jun-15 20:34N 49°18' W 123°52'0 0.5
2016-Jun-15 19:33N 49°18' W 123°52'6 5.7
2016-Jun-15 18:33N 49°13' W 123°55'2 1.7
2016-Jun-15 17:33N 49°12' W 123°57'0 0.0
2016-Jun-15 16:33N 49°12' W 123°57'0 0.0
2016-Jun-15 15:33N 49°12' W 123°57'0 0.0
2016-Jun-15 14:34N 49°12' W 123°57'0 0.0
2016-Jun-15 13:34N 49°12' W 123°57'0 0.0
2016-Jun-15 12:34N 49°12' W 123°57'0 0.0
2016-Jun-15 11:34N 49°12' W 123°57'0 0.0
2016-Jun-15 10:34N 49°12' W 123°57'0 0.0
2016-Jun-15 09:34N 49°12' W 123°57'0 0.0
2016-Jun-15 08:34N 49°12' W 123°57'  

Dump ship's entire track history